createdAt,value
2023-01-22T00:01:09.021Z,-0.28
2023-01-22T00:03:40.089Z,-0.31
2023-01-22T00:06:07.434Z,-0.29
2023-01-22T00:08:37.144Z,-0.28
2023-01-22T00:11:04.469Z,-0.27
2023-01-22T00:13:31.161Z,-0.31
2023-01-22T00:15:59.261Z,-0.30
2023-01-22T00:18:26.682Z,-0.30
2023-01-22T00:20:54.766Z,-0.30
2023-01-22T00:23:22.055Z,-0.31
2023-01-22T00:25:48.917Z,-0.26
2023-01-22T00:28:17.052Z,-0.29
2023-01-22T00:30:44.003Z,-0.31
2023-01-22T00:33:11.669Z,-0.32
2023-01-22T00:35:38.501Z,-0.35
2023-01-22T00:38:06.131Z,-0.32
2023-01-22T00:40:32.862Z,-0.30
2023-01-22T00:42:59.632Z,-0.30
2023-01-22T00:45:26.416Z,-0.34
2023-01-22T00:47:53.205Z,-0.36
2023-01-22T00:50:20.117Z,-0.32
2023-01-22T00:52:46.903Z,-0.30
2023-01-22T00:55:13.610Z,-0.31
2023-01-22T00:57:40.443Z,-0.31
2023-01-22T01:00:08.171Z,-0.35
2023-01-22T01:02:55.304Z,-0.40
2023-01-22T01:05:22.154Z,-0.41
2023-01-22T01:07:51.811Z,-0.43
2023-01-22T01:10:19.479Z,-0.47
2023-01-22T01:12:46.488Z,-0.44
2023-01-22T01:15:13.246Z,-0.45
2023-01-22T01:17:40.109Z,-0.46
2023-01-22T01:20:07.140Z,-0.45
2023-01-22T01:22:37.192Z,-0.48
2023-01-22T01:25:04.850Z,-0.48
2023-01-22T01:27:32.593Z,-0.47
2023-01-22T01:29:59.357Z,-0.47
2023-01-22T01:32:26.262Z,-0.45
2023-01-22T01:34:53.109Z,-0.45
2023-01-22T01:37:19.875Z,-0.43
2023-01-22T01:39:48.049Z,-0.45
2023-01-22T01:42:14.841Z,-0.39
2023-01-22T01:44:42.709Z,-0.42
2023-01-22T01:47:29.402Z,-0.44
2023-01-22T01:49:56.213Z,-0.43
2023-01-22T01:52:23.181Z,-0.44
2023-01-22T01:54:53.379Z,-0.45
2023-01-22T01:57:23.694Z,-0.45
2023-01-22T01:59:52.462Z,-0.45
2023-01-22T02:02:20.675Z,-0.45
2023-01-22T02:04:49.933Z,-0.46
2023-01-22T02:07:16.989Z,-0.46
2023-01-22T02:09:43.891Z,-0.46
2023-01-22T02:12:10.698Z,-0.46
2023-01-22T02:14:40.423Z,-0.47
2023-01-22T02:17:11.676Z,-0.46
2023-01-22T02:19:46.632Z,-0.48
2023-01-22T02:22:18.411Z,-0.44
2023-01-22T02:24:46.119Z,-0.43
2023-01-22T02:27:13.071Z,-0.47
2023-01-22T02:29:40.146Z,-0.50
2023-01-22T02:32:09.737Z,-0.52
2023-01-22T02:34:37.375Z,-0.53
2023-01-22T02:37:04.374Z,-0.53
2023-01-22T02:39:31.805Z,-0.55
2023-01-22T02:42:01.961Z,-0.56
2023-01-22T02:44:29.385Z,-0.57
2023-01-22T02:46:56.145Z,-0.55
2023-01-22T02:49:22.969Z,-0.57
2023-01-22T02:51:50.446Z,-0.61
2023-01-22T02:54:18.110Z,-0.61
2023-01-22T02:56:44.805Z,-0.64
2023-01-22T02:59:11.744Z,-0.63
2023-01-22T03:01:38.640Z,-0.65
2023-01-22T03:04:12.557Z,-0.63
2023-01-22T03:06:43.916Z,-0.69
2023-01-22T03:09:12.331Z,-0.63
2023-01-22T03:11:41.745Z,-0.65
2023-01-22T03:14:31.919Z,-0.65
2023-01-22T03:17:17.936Z,-0.64
2023-01-22T03:20:03.595Z,-0.62
2023-01-22T03:22:33.184Z,-0.64
2023-01-22T03:25:01.599Z,-0.64
2023-01-22T03:27:32.304Z,-0.64
2023-01-22T03:29:59.394Z,-0.63
2023-01-22T03:32:26.615Z,-0.61
2023-01-22T03:34:54.995Z,-0.62
2023-01-22T03:37:23.119Z,-0.61
2023-01-22T03:39:53.152Z,-0.54
2023-01-22T03:42:28.028Z,-0.52
2023-01-22T03:44:55.067Z,-0.52
2023-01-22T03:47:22.104Z,-0.56
2023-01-22T03:49:49.633Z,-0.49
2023-01-22T03:52:16.515Z,-0.46
2023-01-22T03:54:43.499Z,-0.40
2023-01-22T03:57:11.628Z,-0.40
2023-01-22T03:59:40.660Z,-0.51
2023-01-22T04:02:07.680Z,-0.52
2023-01-22T04:04:44.825Z,-0.51
2023-01-22T04:07:12.451Z,-0.51
2023-01-22T04:09:40.002Z,-0.52
2023-01-22T04:12:07.049Z,-0.50
2023-01-22T04:14:34.059Z,-0.48
2023-01-22T04:17:03.006Z,-0.53
2023-01-22T04:19:40.351Z,-0.53
2023-01-22T04:22:18.218Z,-0.55
2023-01-22T04:24:47.017Z,-0.55
2023-01-22T04:27:14.609Z,-0.55
2023-01-22T04:29:41.511Z,-0.57
2023-01-22T04:32:08.793Z,-0.55
2023-01-22T04:34:54.467Z,-0.54
2023-01-22T04:37:25.661Z,-0.55
2023-01-22T04:39:52.951Z,-0.58
2023-01-22T04:42:19.809Z,-0.52
2023-01-22T04:44:47.483Z,-0.53
2023-01-22T04:47:14.711Z,-0.50
2023-01-22T04:49:42.594Z,-0.52
2023-01-22T04:52:11.700Z,-0.52
2023-01-22T04:54:38.646Z,-0.47
2023-01-22T04:57:05.803Z,-0.48
2023-01-22T04:59:32.672Z,-0.45
2023-01-22T05:01:59.576Z,-0.35
2023-01-22T05:04:27.010Z,-0.38
2023-01-22T05:06:54.213Z,-0.33
2023-01-22T05:09:21.272Z,-0.29
2023-01-22T05:11:53.735Z,-0.30
2023-01-22T05:14:24.025Z,-0.31
2023-01-22T05:16:50.914Z,-0.26
2023-01-22T05:19:17.899Z,-0.18
2023-01-22T05:21:44.926Z,-0.19
2023-01-22T05:24:23.324Z,-0.25
2023-01-22T05:26:53.172Z,-0.26
2023-01-22T05:29:29.717Z,-0.19
2023-01-22T05:32:16.581Z,-0.29
2023-01-22T05:34:52.601Z,-0.26
2023-01-22T05:37:19.460Z,-0.24
2023-01-22T05:39:46.552Z,-0.25
2023-01-22T05:42:16.094Z,-0.21
2023-01-22T05:44:45.458Z,-0.25
2023-01-22T05:47:13.900Z,-0.09
2023-01-22T05:49:54.165Z,-0.15
2023-01-22T05:52:21.627Z,-0.12
2023-01-22T05:54:50.563Z,-0.02
2023-01-22T05:57:17.518Z,0.01
2023-01-22T05:59:49.661Z,-0.15
2023-01-22T06:02:16.680Z,-0.22
2023-01-22T06:04:44.789Z,-0.22
2023-01-22T06:07:22.381Z,-0.20
2023-01-22T06:09:51.575Z,-0.11
2023-01-22T06:12:18.686Z,-0.22
2023-01-22T06:14:46.886Z,-0.27
2023-01-22T06:17:14.169Z,-0.24
2023-01-22T06:19:51.146Z,-0.24
2023-01-22T06:22:19.429Z,-0.14
2023-01-22T06:24:51.401Z,-0.06
2023-01-22T06:27:19.546Z,-0.19
2023-01-22T06:30:05.004Z,-0.18
2023-01-22T06:34:10.322Z,0.09
2023-01-22T06:36:37.221Z,0.01
2023-01-22T06:42:35.522Z,-0.24
2023-01-22T06:45:04.665Z,-0.14
2023-01-22T06:47:31.662Z,-0.17
2023-01-22T06:49:58.464Z,-0.17
2023-01-22T06:52:25.233Z,-0.03
2023-01-22T06:54:51.953Z,-0.12
2023-01-22T06:57:18.880Z,-0.17
2023-01-22T06:59:45.670Z,-0.29
2023-01-22T07:02:17.841Z,-0.28
2023-01-22T07:04:44.549Z,-0.30
2023-01-22T07:07:11.735Z,-0.32
2023-01-22T07:09:38.466Z,-0.37
2023-01-22T07:12:05.318Z,-0.34
2023-01-22T07:14:36.877Z,-0.31
2023-01-22T07:17:04.372Z,-0.31
2023-01-22T07:19:31.282Z,-0.21
2023-01-22T07:21:58.360Z,-0.24
2023-01-22T07:24:25.043Z,-0.19
2023-01-22T07:26:51.787Z,-0.14
2023-01-22T07:29:18.532Z,-0.19
2023-01-22T07:31:49.530Z,-0.17
2023-01-22T07:34:16.548Z,-0.09
2023-01-22T07:36:43.252Z,-0.14
2023-01-22T07:39:09.932Z,-0.17
2023-01-22T07:41:36.754Z,-0.25
2023-01-22T07:44:11.420Z,-0.28
2023-01-22T07:46:41.725Z,-0.30
2023-01-22T07:49:08.476Z,-0.28
2023-01-22T07:51:35.274Z,-0.31
2023-01-22T07:54:02.045Z,-0.32
2023-01-22T07:56:31.360Z,-0.31
2023-01-22T07:58:58.119Z,-0.34
2023-01-22T08:01:24.863Z,-0.25
2023-01-22T08:03:51.625Z,-0.23
2023-01-22T08:06:22.343Z,-0.21
2023-01-22T08:08:49.318Z,-0.15
2023-01-22T08:11:16.303Z,-0.16
2023-01-22T08:13:50.519Z,-0.16
2023-01-22T08:16:17.459Z,-0.06
2023-01-22T08:18:44.188Z,-0.11
2023-01-22T08:21:11.315Z,-0.05
2023-01-22T08:23:38.087Z,-0.14
2023-01-22T08:26:05.218Z,-0.04
2023-01-22T08:28:32.040Z,0.08
2023-01-22T08:31:03.935Z,0.11
2023-01-22T08:33:34.419Z,0.16
2023-01-22T08:36:01.310Z,0.03
2023-01-22T08:38:29.251Z,0.01
2023-01-22T08:40:56.061Z,0.08
2023-01-22T08:43:22.773Z,0.21
2023-01-22T08:45:50.074Z,0.33
2023-01-22T08:48:19.363Z,0.34
2023-01-22T08:50:46.108Z,0.29
2023-01-22T08:53:12.833Z,0.21
2023-01-22T08:55:39.631Z,0.13
2023-01-22T08:58:06.318Z,0.10
2023-01-22T09:00:38.039Z,0.23
2023-01-22T09:03:04.695Z,0.27
2023-01-22T09:05:34.638Z,0.39
2023-01-22T09:08:04.371Z,0.40
2023-01-22T09:10:33.033Z,0.42
2023-01-22T09:13:00.541Z,0.36
2023-01-22T09:15:27.842Z,0.44
2023-01-22T09:17:59.038Z,0.47
2023-01-22T09:20:26.157Z,0.26
2023-01-22T09:22:52.902Z,0.36
2023-01-22T09:25:22.475Z,0.26
2023-01-22T09:27:53.432Z,0.30
2023-01-22T09:30:32.345Z,0.43
2023-01-22T09:32:59.278Z,0.32
2023-01-22T09:35:29.351Z,0.16
2023-01-22T09:38:02.033Z,0.17
2023-01-22T09:40:36.124Z,0.16
2023-01-22T09:43:20.687Z,0.29
2023-01-22T09:46:27.445Z,0.43
2023-01-22T09:48:57.831Z,0.52
2023-01-22T09:51:28.235Z,0.52
2023-01-22T09:54:36.570Z,0.60
2023-01-22T09:57:19.895Z,0.45
2023-01-22T10:02:53.220Z,0.52
2023-01-22T10:05:24.652Z,0.56
2023-01-22T10:08:01.324Z,0.61
2023-01-22T10:10:33.502Z,0.63
2023-01-22T10:13:25.713Z,0.65
2023-01-22T10:15:56.939Z,0.56
2023-01-22T10:18:46.536Z,0.55
2023-01-22T10:21:24.655Z,0.56
2023-01-22T10:23:52.295Z,0.60
2023-01-22T10:26:29.451Z,0.68
2023-01-22T10:28:58.647Z,0.72
2023-01-22T10:31:35.570Z,0.65
2023-01-22T10:34:05.361Z,0.72
2023-01-22T10:36:32.403Z,0.52
2023-01-22T10:39:05.885Z,0.53
2023-01-22T10:41:37.982Z,0.44
2023-01-22T10:44:16.910Z,0.49
2023-01-22T10:46:45.091Z,0.62
2023-01-22T10:49:17.302Z,0.61
2023-01-22T10:51:55.821Z,0.46
2023-01-22T10:54:34.320Z,0.46
2023-01-22T10:57:25.658Z,0.63
2023-01-22T10:59:58.876Z,0.64
2023-01-22T11:02:26.588Z,0.55
2023-01-22T11:04:53.381Z,0.60
2023-01-22T11:07:20.103Z,0.71
2023-01-22T11:09:51.242Z,0.69
2023-01-22T11:12:22.771Z,0.56
2023-01-22T11:15:00.021Z,0.54
2023-01-22T11:17:34.731Z,0.45
2023-01-22T11:20:24.748Z,0.40
2023-01-22T11:23:11.378Z,0.45
2023-01-22T11:25:46.293Z,0.58
2023-01-22T11:28:42.610Z,0.61
2023-01-22T11:31:22.332Z,0.59
2023-01-22T11:33:57.097Z,0.50
2023-01-22T11:36:33.674Z,0.46
2023-01-22T11:39:10.424Z,0.31
2023-01-22T11:42:11.357Z,0.33
2023-01-22T11:44:53.386Z,0.28
2023-01-22T11:47:26.312Z,0.29
2023-01-22T11:50:01.709Z,0.24
2023-01-22T11:53:00.862Z,0.22
2023-01-22T11:56:01.042Z,0.32
2023-01-22T11:58:50.019Z,0.42
2023-01-22T12:01:47.280Z,0.44
2023-01-22T12:04:37.408Z,0.45
2023-01-22T12:07:16.664Z,0.37
2023-01-22T12:10:30.222Z,0.23
2023-01-22T12:13:27.018Z,0.16
2023-01-22T12:16:12.676Z,0.39
2023-01-22T12:18:50.097Z,0.50
2023-01-22T12:21:29.426Z,0.55
2023-01-22T12:24:06.127Z,0.61
2023-01-22T12:26:36.856Z,0.64
2023-01-22T12:29:12.887Z,0.65
2023-01-22T12:32:01.398Z,0.59
2023-01-22T12:34:48.215Z,0.62
2023-01-22T12:37:18.205Z,0.73
2023-01-22T12:40:10.360Z,0.78
2023-01-22T12:42:43.212Z,0.80
2023-01-22T12:45:41.042Z,0.80
2023-01-22T12:48:35.921Z,0.60
2023-01-22T12:51:02.916Z,0.56
2023-01-22T12:53:37.874Z,0.42
2023-01-22T12:56:12.034Z,0.38
2023-01-22T12:58:40.684Z,0.30
2023-01-22T13:01:23.656Z,0.38
2023-01-22T13:03:59.800Z,0.46
2023-01-22T13:06:32.829Z,0.44
2023-01-22T13:09:00.017Z,0.43
2023-01-22T13:11:41.491Z,0.38
2023-01-22T13:14:28.733Z,0.35
2023-01-22T13:16:57.817Z,0.51
2023-01-22T13:19:42.530Z,0.56
2023-01-22T13:22:22.226Z,0.41
2023-01-22T13:24:54.377Z,0.41
2023-01-22T13:27:29.858Z,0.55
2023-01-22T13:30:15.416Z,0.63
2023-01-22T13:32:42.244Z,0.56
2023-01-22T13:35:12.761Z,0.41
2023-01-22T13:37:41.887Z,0.49
2023-01-22T13:40:16.984Z,0.35
2023-01-22T13:42:45.604Z,0.32
2023-01-22T13:45:20.116Z,0.39
2023-01-22T13:47:46.784Z,0.32
2023-01-22T13:50:25.581Z,0.19
2023-01-22T13:52:53.141Z,0.19
2023-01-22T13:55:22.231Z,0.28
2023-01-22T13:57:55.789Z,0.36
2023-01-22T14:00:32.036Z,0.52
2023-01-22T14:03:02.808Z,0.52
2023-01-22T14:05:33.724Z,0.44
2023-01-22T14:08:09.913Z,0.32
2023-01-22T14:10:37.365Z,0.20
2023-01-22T14:13:11.050Z,0.34
2023-01-22T14:15:39.088Z,0.30
2023-01-22T14:18:07.277Z,0.20
2023-01-22T14:20:38.595Z,0.30
2023-01-22T14:23:05.329Z,0.31
2023-01-22T14:25:32.014Z,0.20
2023-01-22T14:28:01.926Z,0.18
2023-01-22T14:30:28.667Z,0.16
2023-01-22T14:32:56.011Z,0.09
2023-01-22T14:35:25.351Z,0.09
2023-01-22T14:37:53.765Z,0.14
2023-01-22T14:40:23.095Z,0.16
2023-01-22T14:42:50.345Z,0.26
2023-01-22T14:45:18.494Z,0.35
2023-01-22T14:47:49.460Z,0.39
2023-01-22T14:50:19.799Z,0.44
2023-01-22T14:52:47.122Z,0.26
2023-01-22T14:55:14.532Z,0.20
2023-01-22T14:57:41.299Z,0.15
2023-01-22T15:00:08.753Z,0.12
2023-01-22T15:02:40.292Z,0.24
2023-01-22T15:05:08.071Z,0.24
2023-01-22T15:07:35.562Z,0.31
2023-01-22T15:10:04.293Z,0.31
2023-01-22T15:12:34.014Z,0.33
2023-01-22T15:15:00.996Z,0.43
2023-01-22T15:17:28.113Z,0.32
2023-01-22T15:19:54.985Z,0.23
2023-01-22T15:22:21.703Z,0.10
2023-01-22T15:24:48.703Z,0.00
2023-01-22T15:27:18.781Z,0.04
2023-01-22T15:29:46.506Z,0.07
2023-01-22T15:32:13.897Z,0.11
2023-01-22T15:34:40.652Z,0.13
2023-01-22T15:37:07.484Z,0.17
2023-01-22T15:39:34.716Z,0.22
2023-01-22T15:42:01.704Z,0.37
2023-01-22T15:44:28.379Z,0.45
2023-01-22T15:46:58.953Z,0.41
2023-01-22T15:49:25.720Z,0.40
2023-01-22T15:51:53.229Z,0.48
2023-01-22T15:54:20.216Z,0.38
2023-01-22T15:56:47.111Z,0.36
2023-01-22T15:59:14.054Z,0.46
2023-01-22T16:01:41.536Z,0.52
2023-01-22T16:04:09.903Z,0.50
2023-01-22T16:06:37.050Z,0.50
2023-01-22T16:09:07.894Z,0.47
2023-01-22T16:11:35.035Z,0.51
2023-01-22T16:14:04.441Z,0.58
2023-01-22T16:16:36.815Z,0.54
2023-01-22T16:19:06.679Z,0.61
2023-01-22T16:21:33.639Z,0.61
2023-01-22T16:24:01.200Z,0.69
2023-01-22T16:26:30.679Z,0.71
2023-01-22T16:29:00.384Z,0.65
2023-01-22T16:31:29.978Z,0.82
2023-01-22T16:34:01.343Z,0.76
2023-01-22T16:36:29.842Z,0.76
2023-01-22T16:38:56.661Z,0.72
2023-01-22T16:41:28.309Z,0.73
2023-01-22T16:44:09.351Z,0.66
2023-01-22T16:46:39.047Z,0.69
2023-01-22T16:49:28.332Z,0.67
2023-01-22T16:51:57.235Z,0.73
2023-01-22T16:54:29.792Z,0.73
2023-01-22T16:57:01.499Z,0.73
2023-01-22T16:59:32.667Z,0.70
2023-01-22T17:02:01.455Z,0.66
2023-01-22T17:04:31.942Z,0.76
2023-01-22T17:06:59.684Z,0.70
2023-01-22T17:09:29.097Z,0.71
2023-01-22T17:11:58.382Z,0.76
2023-01-22T17:14:29.940Z,0.78
2023-01-22T17:16:58.164Z,0.78
2023-01-22T17:19:27.934Z,0.79
2023-01-22T17:21:59.688Z,0.79
2023-01-22T17:24:27.745Z,0.81
2023-01-22T17:26:56.672Z,0.76
2023-01-22T17:29:23.867Z,0.79
2023-01-22T17:31:51.238Z,0.75
2023-01-22T17:34:18.632Z,0.55
2023-01-22T17:36:45.776Z,0.55
2023-01-22T17:39:26.725Z,0.61
2023-01-22T17:42:12.172Z,0.55
2023-01-22T17:44:40.892Z,0.45
2023-01-22T17:47:08.960Z,0.39
2023-01-22T17:49:36.664Z,0.38
2023-01-22T17:52:04.566Z,0.42
2023-01-22T17:54:31.445Z,0.42
2023-01-22T17:57:04.206Z,0.45
2023-01-22T17:59:32.087Z,0.42
2023-01-22T18:02:00.293Z,0.59
2023-01-22T18:04:27.623Z,0.59
2023-01-22T18:06:56.671Z,0.66
2023-01-22T18:09:23.975Z,0.66
2023-01-22T18:11:50.688Z,0.74
2023-01-22T18:14:32.486Z,0.76
2023-01-22T18:17:02.827Z,0.79
2023-01-22T18:19:30.125Z,0.79
2023-01-22T18:21:57.298Z,0.77
2023-01-22T18:24:26.573Z,0.85
2023-01-22T18:26:55.532Z,0.81
2023-01-22T18:29:22.639Z,0.79
2023-01-22T18:31:49.796Z,0.81
2023-01-22T18:34:16.615Z,0.83
2023-01-22T18:36:44.278Z,0.81
2023-01-22T18:39:15.430Z,0.84
2023-01-22T18:41:44.044Z,0.73
2023-01-22T18:44:14.967Z,0.55
2023-01-22T18:46:45.281Z,0.49
2023-01-22T18:49:18.866Z,0.47
2023-01-22T18:51:49.197Z,0.45
2023-01-22T18:54:16.814Z,0.42
2023-01-22T18:56:46.731Z,0.39
2023-01-22T18:59:13.947Z,0.35
2023-01-22T19:01:41.201Z,0.31
2023-01-22T19:04:10.157Z,0.35
2023-01-22T19:06:38.481Z,0.37
2023-01-22T19:09:07.170Z,0.32
2023-01-22T19:11:38.211Z,0.25
2023-01-22T19:14:21.572Z,0.24
2023-01-22T19:16:53.329Z,0.22
2023-01-22T19:19:21.823Z,0.16
2023-01-22T19:21:52.494Z,0.12
2023-01-22T19:24:24.496Z,0.18
2023-01-22T19:26:52.388Z,0.15
2023-01-22T19:29:19.480Z,0.17
2023-01-22T19:31:48.572Z,0.14
2023-01-22T19:34:23.517Z,0.12
2023-01-22T19:36:52.887Z,0.07
2023-01-22T19:39:20.432Z,0.06
2023-01-22T19:41:47.975Z,0.06
2023-01-22T19:44:18.372Z,0.04
2023-01-22T19:46:45.620Z,-0.02
2023-01-22T19:49:13.473Z,-0.01
2023-01-22T19:51:40.831Z,0.01
2023-01-22T19:54:09.059Z,0.02
2023-01-22T19:56:37.569Z,-0.02
2023-01-22T19:59:06.719Z,-0.05
2023-01-22T20:01:35.109Z,-0.10
2023-01-22T20:04:02.007Z,-0.06
2023-01-22T20:06:29.785Z,-0.13
2023-01-22T20:08:57.064Z,-0.17
2023-01-22T20:11:24.822Z,-0.14
2023-01-22T20:13:51.850Z,-0.13
2023-01-22T20:16:24.915Z,-0.11
2023-01-22T20:18:53.451Z,-0.10
2023-01-22T20:21:21.401Z,-0.13
2023-01-22T20:23:49.157Z,-0.17
2023-01-22T20:26:17.916Z,-0.11
2023-01-22T20:28:45.523Z,-0.10
2023-01-22T20:31:14.797Z,-0.04
2023-01-22T20:33:41.709Z,0.14
2023-01-22T20:36:10.544Z,0.23
2023-01-22T20:38:37.650Z,0.25
2023-01-22T20:41:09.403Z,0.33
2023-01-22T20:43:37.921Z,0.31
2023-01-22T20:46:18.744Z,0.38
2023-01-22T20:48:49.205Z,0.45
2023-01-22T20:51:19.248Z,0.43
2023-01-22T20:53:47.007Z,0.45
2023-01-22T20:56:17.641Z,0.47
2023-01-22T20:58:44.666Z,0.45
2023-01-22T21:01:20.273Z,0.49
2023-01-22T21:03:47.931Z,0.53
2023-01-22T21:06:16.647Z,0.58
2023-01-22T21:08:44.300Z,0.57
2023-01-22T21:11:13.177Z,0.59
2023-01-22T21:13:43.004Z,0.59
2023-01-22T21:16:13.540Z,0.54
2023-01-22T21:18:43.831Z,0.55
2023-01-22T21:21:13.794Z,0.54
2023-01-22T21:23:41.450Z,0.52
2023-01-22T21:26:11.743Z,0.53
2023-01-22T21:28:39.891Z,0.54
2023-01-22T21:31:08.750Z,0.55
2023-01-22T21:33:38.893Z,0.58
2023-01-22T21:36:07.754Z,0.59
2023-01-22T21:38:35.356Z,0.62
2023-01-22T21:41:04.369Z,0.60
2023-01-22T21:43:51.957Z,0.57
2023-01-22T21:46:27.600Z,0.61
2023-01-22T21:48:58.294Z,0.57
2023-01-22T21:51:29.300Z,0.49
2023-01-22T21:53:56.542Z,0.36
2023-01-22T21:56:23.743Z,0.41
2023-01-22T21:58:50.853Z,0.28
2023-01-22T22:01:21.399Z,0.37
2023-01-22T22:03:51.521Z,0.29
2023-01-22T22:06:18.229Z,0.29
2023-01-22T22:08:45.211Z,0.32
2023-01-22T22:11:13.527Z,0.30
2023-01-22T22:13:41.166Z,0.27
2023-01-22T22:16:08.958Z,0.26
2023-01-22T22:18:36.203Z,0.24
2023-01-22T22:21:05.434Z,0.22
2023-01-22T22:23:32.599Z,0.31
2023-01-22T22:26:02.976Z,0.30
2023-01-22T22:28:30.206Z,0.40
2023-01-22T22:31:11.980Z,0.56
2023-01-22T22:33:43.004Z,0.64
2023-01-22T22:36:10.870Z,0.58
2023-01-22T22:38:38.094Z,0.66
2023-01-22T22:41:18.423Z,0.73
2023-01-22T22:43:46.776Z,0.88
2023-01-22T22:46:16.672Z,0.94
2023-01-22T22:48:44.330Z,0.98
2023-01-22T22:51:16.214Z,0.88
2023-01-22T22:53:43.487Z,0.73
2023-01-22T22:56:11.153Z,0.56
2023-01-22T22:58:38.452Z,0.54
2023-01-22T23:01:10.027Z,0.55
2023-01-22T23:03:37.639Z,0.50
2023-01-22T23:06:13.759Z,0.59
2023-01-22T23:08:42.485Z,0.69
2023-01-22T23:11:14.149Z,0.73
2023-01-22T23:13:44.307Z,0.87
2023-01-22T23:16:13.673Z,0.74
2023-01-22T23:18:40.533Z,0.76
2023-01-22T23:21:12.908Z,0.84
2023-01-22T23:23:40.069Z,0.95
2023-01-22T23:26:18.089Z,1.03
2023-01-22T23:28:48.023Z,1.10
2023-01-22T23:31:16.811Z,1.06
2023-01-22T23:33:44.069Z,1.16
2023-01-22T23:36:13.240Z,1.09
2023-01-22T23:38:46.064Z,1.04
2023-01-22T23:41:14.884Z,0.85
2023-01-22T23:43:42.477Z,0.75
2023-01-22T23:46:11.123Z,0.78
2023-01-22T23:48:38.134Z,0.88
2023-01-22T23:51:06.721Z,0.88
2023-01-22T23:53:36.731Z,0.88
2023-01-22T23:56:05.251Z,0.76
2023-01-22T23:58:32.205Z,0.90
